sensor_id;sensor_type;location;lat;lon;timestamp;P1;durP1;ratioP1;P2;durP2;ratioP2
59938;SDS011;45801;51.810;19.444;2023-08-06T00:00:53;8.00;;;4.40;;
59938;SDS011;45801;51.810;19.444;2023-08-06T00:03:39;7.20;;;4.40;;
59938;SDS011;45801;51.810;19.444;2023-08-06T00:06:06;6.90;;;3.90;;
59938;SDS011;45801;51.810;19.444;2023-08-06T00:08:32;7.50;;;4.20;;
59938;SDS011;45801;51.810;19.444;2023-08-06T00:10:59;7.10;;;4.20;;
59938;SDS011;45801;51.810;19.444;2023-08-06T00:13:25;7.20;;;4.30;;
59938;SDS011;45801;51.810;19.444;2023-08-06T00:15:53;8.40;;;5.10;;
59938;SDS011;45801;51.810;19.444;2023-08-06T00:18:19;7.50;;;4.60;;
59938;SDS011;45801;51.810;19.444;2023-08-06T00:20:45;8.10;;;4.40;;
59938;SDS011;45801;51.810;19.444;2023-08-06T00:23:13;8.40;;;4.60;;
59938;SDS011;45801;51.810;19.444;2023-08-06T00:25:40;7.50;;;4.60;;
59938;SDS011;45801;51.810;19.444;2023-08-06T00:28:06;7.60;;;4.20;;
59938;SDS011;45801;51.810;19.444;2023-08-06T00:30:32;7.60;;;4.50;;
59938;SDS011;45801;51.810;19.444;2023-08-06T00:32:59;7.70;;;4.60;;
59938;SDS011;45801;51.810;19.444;2023-08-06T00:35:25;7.90;;;4.40;;
59938;SDS011;45801;51.810;19.444;2023-08-06T00:37:52;7.70;;;4.80;;
59938;SDS011;45801;51.810;19.444;2023-08-06T00:40:19;9.10;;;5.00;;
59938;SDS011;45801;51.810;19.444;2023-08-06T00:42:47;7.90;;;4.70;;
59938;SDS011;45801;51.810;19.444;2023-08-06T00:45:14;7.90;;;4.40;;
59938;SDS011;45801;51.810;19.444;2023-08-06T00:47:41;7.70;;;5.10;;
59938;SDS011;45801;51.810;19.444;2023-08-06T00:50:07;7.20;;;4.40;;
59938;SDS011;45801;51.810;19.444;2023-08-06T00:52:34;7.10;;;4.10;;
59938;SDS011;45801;51.810;19.444;2023-08-06T00:55:02;7.70;;;4.10;;
59938;SDS011;45801;51.810;19.444;2023-08-06T00:57:29;7.40;;;4.10;;
59938;SDS011;45801;51.810;19.444;2023-08-06T00:59:55;7.80;;;4.40;;
59938;SDS011;45801;51.810;19.444;2023-08-06T01:02:22;8.40;;;4.70;;
59938;SDS011;45801;51.810;19.444;2023-08-06T01:04:49;7.60;;;4.10;;
59938;SDS011;45801;51.810;19.444;2023-08-06T01:07:25;8.30;;;4.80;;
59938;SDS011;45801;51.810;19.444;2023-08-06T01:15:29;7.90;;;5.10;;
59938;SDS011;45801;51.810;19.444;2023-08-06T01:18:01;7.90;;;5.20;;
59938;SDS011;45801;51.810;19.444;2023-08-06T01:20:28;7.80;;;4.80;;
59938;SDS011;45801;51.810;19.444;2023-08-06T01:22:56;8.40;;;4.70;;
59938;SDS011;45801;51.810;19.444;2023-08-06T01:25:24;8.10;;;5.20;;
59938;SDS011;45801;51.810;19.444;2023-08-06T01:28:02;8.50;;;5.00;;
59938;SDS011;45801;51.810;19.444;2023-08-06T01:30:33;8.40;;;4.70;;
59938;SDS011;45801;51.810;19.444;2023-08-06T01:33:05;8.10;;;5.30;;
59938;SDS011;45801;51.810;19.444;2023-08-06T01:35:33;8.70;;;5.60;;
59938;SDS011;45801;51.810;19.444;2023-08-06T01:38:02;9.10;;;5.40;;
59938;SDS011;45801;51.810;19.444;2023-08-06T01:40:29;9.00;;;5.60;;
59938;SDS011;45801;51.810;19.444;2023-08-06T01:42:56;8.70;;;5.50;;
59938;SDS011;45801;51.810;19.444;2023-08-06T01:45:22;8.70;;;5.70;;
59938;SDS011;45801;51.810;19.444;2023-08-06T01:47:49;8.80;;;5.70;;
59938;SDS011;45801;51.810;19.444;2023-08-06T01:50:15;8.90;;;6.20;;
59938;SDS011;45801;51.810;19.444;2023-08-06T01:52:41;9.30;;;6.30;;
59938;SDS011;45801;51.810;19.444;2023-08-06T01:55:08;9.40;;;6.30;;
59938;SDS011;45801;51.810;19.444;2023-08-06T01:57:34;8.90;;;5.90;;
59938;SDS011;45801;51.810;19.444;2023-08-06T02:00:00;9.80;;;6.30;;
59938;SDS011;45801;51.810;19.444;2023-08-06T02:02:27;8.70;;;6.10;;
59938;SDS011;45801;51.810;19.444;2023-08-06T02:04:53;8.40;;;5.70;;
59938;SDS011;45801;51.810;19.444;2023-08-06T02:07:20;8.70;;;5.70;;
59938;SDS011;45801;51.810;19.444;2023-08-06T02:09:46;9.00;;;6.30;;
59938;SDS011;45801;51.810;19.444;2023-08-06T02:12:12;9.10;;;6.60;;
59938;SDS011;45801;51.810;19.444;2023-08-06T02:14:39;8.90;;;6.10;;
59938;SDS011;45801;51.810;19.444;2023-08-06T02:17:05;8.00;;;4.40;;
59938;SDS011;45801;51.810;19.444;2023-08-06T02:19:32;6.70;;;4.00;;
59938;SDS011;45801;51.810;19.444;2023-08-06T02:21:58;9.30;;;4.00;;
59938;SDS011;45801;51.810;19.444;2023-08-06T02:24:25;7.20;;;3.90;;
59938;SDS011;45801;51.810;19.444;2023-08-06T02:26:51;7.40;;;4.30;;
59938;SDS011;45801;51.810;19.444;2023-08-06T02:29:21;7.50;;;3.70;;
59938;SDS011;45801;51.810;19.444;2023-08-06T02:31:48;6.90;;;3.80;;
59938;SDS011;45801;51.810;19.444;2023-08-06T02:34:14;7.60;;;4.00;;
59938;SDS011;45801;51.810;19.444;2023-08-06T02:36:40;7.30;;;3.70;;
59938;SDS011;45801;51.810;19.444;2023-08-06T02:39:07;7.60;;;4.10;;
59938;SDS011;45801;51.810;19.444;2023-08-06T02:41:33;7.10;;;4.10;;
59938;SDS011;45801;51.810;19.444;2023-08-06T02:43:59;7.20;;;4.10;;
59938;SDS011;45801;51.810;19.444;2023-08-06T02:46:26;6.70;;;4.00;;
59938;SDS011;45801;51.810;19.444;2023-08-06T02:48:52;7.00;;;3.70;;
59938;SDS011;45801;51.810;19.444;2023-08-06T02:51:18;6.50;;;3.80;;
59938;SDS011;45801;51.810;19.444;2023-08-06T02:53:45;7.20;;;3.80;;
59938;SDS011;45801;51.810;19.444;2023-08-06T02:56:13;6.70;;;3.80;;
59938;SDS011;45801;51.810;19.444;2023-08-06T02:58:40;6.90;;;3.40;;
59938;SDS011;45801;51.810;19.444;2023-08-06T03:01:06;7.10;;;3.90;;
59938;SDS011;45801;51.810;19.444;2023-08-06T03:03:33;5.80;;;3.40;;
59938;SDS011;45801;51.810;19.444;2023-08-06T03:06:00;7.30;;;4.00;;
59938;SDS011;45801;51.810;19.444;2023-08-06T03:08:26;6.90;;;3.60;;
59938;SDS011;45801;51.810;19.444;2023-08-06T03:10:53;7.80;;;3.60;;
59938;SDS011;45801;51.810;19.444;2023-08-06T03:13:20;7.10;;;4.10;;
59938;SDS011;45801;51.810;19.444;2023-08-06T03:15:53;6.90;;;3.60;;
59938;SDS011;45801;51.810;19.444;2023-08-06T03:18:24;6.90;;;3.60;;
59938;SDS011;45801;51.810;19.444;2023-08-06T03:20:52;7.70;;;4.00;;
59938;SDS011;45801;51.810;19.444;2023-08-06T03:23:19;7.60;;;4.10;;
59938;SDS011;45801;51.810;19.444;2023-08-06T03:25:46;8.00;;;4.10;;
59938;SDS011;45801;51.810;19.444;2023-08-06T03:28:13;7.10;;;4.00;;
59938;SDS011;45801;51.810;19.444;2023-08-06T03:30:39;7.60;;;4.50;;
59938;SDS011;45801;51.810;19.444;2023-08-06T03:33:06;7.70;;;4.10;;
59938;SDS011;45801;51.810;19.444;2023-08-06T03:35:32;7.30;;;4.40;;
59938;SDS011;45801;51.810;19.444;2023-08-06T03:37:59;7.00;;;4.00;;
59938;SDS011;45801;51.810;19.444;2023-08-06T03:40:25;8.10;;;4.80;;
59938;SDS011;45801;51.810;19.444;2023-08-06T03:42:52;8.40;;;5.00;;
59938;SDS011;45801;51.810;19.444;2023-08-06T03:45:18;8.00;;;4.60;;
59938;SDS011;45801;51.810;19.444;2023-08-06T03:47:45;8.10;;;4.50;;
59938;SDS011;45801;51.810;19.444;2023-08-06T03:50:11;9.30;;;5.00;;
59938;SDS011;45801;51.810;19.444;2023-08-06T03:52:38;9.00;;;4.90;;
59938;SDS011;45801;51.810;19.444;2023-08-06T03:55:04;8.70;;;5.70;;
59938;SDS011;45801;51.810;19.444;2023-08-06T03:57:31;10.00;;;5.10;;
59938;SDS011;45801;51.810;19.444;2023-08-06T03:59:57;8.70;;;5.80;;
59938;SDS011;45801;51.810;19.444;2023-08-06T04:02:24;9.60;;;5.40;;
59938;SDS011;45801;51.810;19.444;2023-08-06T04:04:50;8.00;;;4.90;;
59938;SDS011;45801;51.810;19.444;2023-08-06T04:07:19;9.50;;;5.70;;
59938;SDS011;45801;51.810;19.444;2023-08-06T04:09:52;9.10;;;5.60;;
59938;SDS011;45801;51.810;19.444;2023-08-06T04:12:26;8.90;;;5.90;;
59938;SDS011;45801;51.810;19.444;2023-08-06T04:14:53;8.90;;;5.80;;
59938;SDS011;45801;51.810;19.444;2023-08-06T04:17:20;10.30;;;6.00;;
59938;SDS011;45801;51.810;19.444;2023-08-06T04:19:51;9.90;;;5.50;;
59938;SDS011;45801;51.810;19.444;2023-08-06T04:22:19;10.10;;;6.60;;
59938;SDS011;45801;51.810;19.444;2023-08-06T04:24:47;11.10;;;5.40;;
59938;SDS011;45801;51.810;19.444;2023-08-06T04:27:14;11.50;;;5.60;;
59938;SDS011;45801;51.810;19.444;2023-08-06T04:29:41;8.80;;;5.20;;
59938;SDS011;45801;51.810;19.444;2023-08-06T04:32:08;9.50;;;5.90;;
59938;SDS011;45801;51.810;19.444;2023-08-06T04:34:35;10.80;;;5.40;;
59938;SDS011;45801;51.810;19.444;2023-08-06T04:37:03;9.70;;;5.70;;
59938;SDS011;45801;51.810;19.444;2023-08-06T04:39:30;8.60;;;5.20;;
59938;SDS011;45801;51.810;19.444;2023-08-06T04:41:56;9.60;;;6.30;;
59938;SDS011;45801;51.810;19.444;2023-08-06T04:44:26;8.70;;;5.40;;
59938;SDS011;45801;51.810;19.444;2023-08-06T04:46:52;9.70;;;5.90;;
59938;SDS011;45801;51.810;19.444;2023-08-06T04:49:22;10.80;;;6.10;;
59938;SDS011;45801;51.810;19.444;2023-08-06T04:51:48;9.80;;;5.80;;
59938;SDS011;45801;51.810;19.444;2023-08-06T04:54:15;8.60;;;5.60;;
59938;SDS011;45801;51.810;19.444;2023-08-06T04:56:41;9.50;;;5.70;;
59938;SDS011;45801;51.810;19.444;2023-08-06T04:59:08;9.70;;;5.70;;
59938;SDS011;45801;51.810;19.444;2023-08-06T05:01:34;8.20;;;5.50;;
59938;SDS011;45801;51.810;19.444;2023-08-06T05:04:00;9.20;;;6.10;;
59938;SDS011;45801;51.810;19.444;2023-08-06T05:06:27;9.60;;;5.80;;
59938;SDS011;45801;51.810;19.444;2023-08-06T05:08:53;9.90;;;5.90;;
59938;SDS011;45801;51.810;19.444;2023-08-06T05:11:20;8.50;;;5.80;;
59938;SDS011;45801;51.810;19.444;2023-08-06T05:13:46;8.80;;;5.70;;
59938;SDS011;45801;51.810;19.444;2023-08-06T05:16:13;9.00;;;5.90;;
59938;SDS011;45801;51.810;19.444;2023-08-06T05:18:39;9.00;;;5.60;;
59938;SDS011;45801;51.810;19.444;2023-08-06T05:21:05;8.80;;;5.90;;
59938;SDS011;45801;51.810;19.444;2023-08-06T05:23:32;9.00;;;5.60;;
59938;SDS011;45801;51.810;19.444;2023-08-06T05:25:58;9.20;;;5.80;;
59938;SDS011;45801;51.810;19.444;2023-08-06T05:28:25;8.40;;;5.60;;
59938;SDS011;45801;51.810;19.444;2023-08-06T05:30:51;8.30;;;5.20;;
59938;SDS011;45801;51.810;19.444;2023-08-06T05:33:17;10.10;;;6.10;;
59938;SDS011;45801;51.810;19.444;2023-08-06T05:35:44;8.20;;;5.30;;
59938;SDS011;45801;51.810;19.444;2023-08-06T05:38:10;9.80;;;6.00;;
59938;SDS011;45801;51.810;19.444;2023-08-06T05:40:37;8.30;;;5.10;;
59938;SDS011;45801;51.810;19.444;2023-08-06T05:43:03;8.70;;;5.30;;
59938;SDS011;45801;51.810;19.444;2023-08-06T05:45:29;8.80;;;5.20;;
59938;SDS011;45801;51.810;19.444;2023-08-06T05:47:56;9.00;;;5.60;;
59938;SDS011;45801;51.810;19.444;2023-08-06T05:50:24;8.60;;;5.80;;
59938;SDS011;45801;51.810;19.444;2023-08-06T05:52:51;8.90;;;5.40;;
59938;SDS011;45801;51.810;19.444;2023-08-06T05:55:18;9.10;;;5.70;;
59938;SDS011;45801;51.810;19.444;2023-08-06T05:57:46;9.20;;;6.00;;
59938;SDS011;45801;51.810;19.444;2023-08-06T06:00:12;9.20;;;5.60;;
59938;SDS011;45801;51.810;19.444;2023-08-06T06:02:39;8.90;;;5.60;;
59938;SDS011;45801;51.810;19.444;2023-08-06T06:05:06;8.80;;;5.90;;
59938;SDS011;45801;51.810;19.444;2023-08-06T06:07:32;9.30;;;6.40;;
59938;SDS011;45801;51.810;19.444;2023-08-06T06:09:59;10.10;;;6.50;;
59938;SDS011;45801;51.810;19.444;2023-08-06T06:12:25;9.10;;;6.30;;
59938;SDS011;45801;51.810;19.444;2023-08-06T06:14:52;10.80;;;7.10;;
59938;SDS011;45801;51.810;19.444;2023-08-06T06:17:18;11.50;;;7.40;;
59938;SDS011;45801;51.810;19.444;2023-08-06T06:19:45;11.20;;;7.60;;
59938;SDS011;45801;51.810;19.444;2023-08-06T06:22:11;11.50;;;7.50;;
59938;SDS011;45801;51.810;19.444;2023-08-06T06:24:38;11.40;;;8.10;;
59938;SDS011;45801;51.810;19.444;2023-08-06T06:27:04;9.70;;;6.70;;
59938;SDS011;45801;51.810;19.444;2023-08-06T06:29:31;9.70;;;6.80;;
59938;SDS011;45801;51.810;19.444;2023-08-06T06:31:57;11.30;;;7.10;;
59938;SDS011;45801;51.810;19.444;2023-08-06T06:34:23;11.00;;;7.40;;
59938;SDS011;45801;51.810;19.444;2023-08-06T06:36:52;10.40;;;7.00;;
59938;SDS011;45801;51.810;19.444;2023-08-06T06:39:18;10.70;;;7.00;;
59938;SDS011;45801;51.810;19.444;2023-08-06T06:41:45;11.00;;;6.60;;
59938;SDS011;45801;51.810;19.444;2023-08-06T06:44:11;9.50;;;6.90;;
59938;SDS011;45801;51.810;19.444;2023-08-06T06:46:38;11.60;;;6.80;;
59938;SDS011;45801;51.810;19.444;2023-08-06T06:49:04;10.00;;;6.70;;
59938;SDS011;45801;51.810;19.444;2023-08-06T06:51:30;11.50;;;7.20;;
59938;SDS011;45801;51.810;19.444;2023-08-06T06:53:58;10.00;;;6.40;;
59938;SDS011;45801;51.810;19.444;2023-08-06T06:56:24;10.40;;;6.90;;
59938;SDS011;45801;51.810;19.444;2023-08-06T06:58:51;9.10;;;6.40;;
59938;SDS011;45801;51.810;19.444;2023-08-06T07:01:17;10.50;;;7.00;;
59938;SDS011;45801;51.810;19.444;2023-08-06T07:03:43;11.80;;;7.40;;
59938;SDS011;45801;51.810;19.444;2023-08-06T07:06:10;10.40;;;7.10;;
59938;SDS011;45801;51.810;19.444;2023-08-06T07:08:38;10.40;;;7.00;;
59938;SDS011;45801;51.810;19.444;2023-08-06T07:11:06;11.00;;;7.00;;
59938;SDS011;45801;51.810;19.444;2023-08-06T07:13:33;11.30;;;7.30;;
59938;SDS011;45801;51.810;19.444;2023-08-06T07:16:00;12.60;;;6.60;;
59938;SDS011;45801;51.810;19.444;2023-08-06T07:18:30;11.00;;;7.20;;
59938;SDS011;45801;51.810;19.444;2023-08-06T07:20:56;10.50;;;7.10;;
59938;SDS011;45801;51.810;19.444;2023-08-06T07:23:23;10.30;;;7.10;;
59938;SDS011;45801;51.810;19.444;2023-08-06T07:25:51;8.00;;;4.70;;
59938;SDS011;45801;51.810;19.444;2023-08-06T07:28:18;11.10;;;7.40;;
59938;SDS011;45801;51.810;19.444;2023-08-06T07:30:44;11.20;;;7.60;;
59938;SDS011;45801;51.810;19.444;2023-08-06T07:33:12;8.50;;;4.80;;
59938;SDS011;45801;51.810;19.444;2023-08-06T07:35:38;10.10;;;6.20;;
59938;SDS011;45801;51.810;19.444;2023-08-06T07:38:04;8.20;;;4.50;;
59938;SDS011;45801;51.810;19.444;2023-08-06T07:40:31;10.00;;;5.10;;
59938;SDS011;45801;51.810;19.444;2023-08-06T07:42:58;12.90;;;7.30;;
59938;SDS011;45801;51.810;19.444;2023-08-06T07:45:24;8.40;;;5.10;;
59938;SDS011;45801;51.810;19.444;2023-08-06T07:47:52;11.20;;;7.00;;
59938;SDS011;45801;51.810;19.444;2023-08-06T07:50:19;13.20;;;8.20;;
59938;SDS011;45801;51.810;19.444;2023-08-06T07:52:45;10.30;;;6.60;;
59938;SDS011;45801;51.810;19.444;2023-08-06T07:55:12;12.70;;;8.10;;
59938;SDS011;45801;51.810;19.444;2023-08-06T07:57:38;13.30;;;8.50;;
59938;SDS011;45801;51.810;19.444;2023-08-06T08:00:05;9.70;;;6.20;;
59938;SDS011;45801;51.810;19.444;2023-08-06T08:02:32;10.80;;;6.60;;
59938;SDS011;45801;51.810;19.444;2023-08-06T08:04:58;13.20;;;8.50;;
59938;SDS011;45801;51.810;19.444;2023-08-06T08:07:24;13.80;;;9.10;;
59938;SDS011;45801;51.810;19.444;2023-08-06T08:09:53;13.50;;;9.70;;
59938;SDS011;45801;51.810;19.444;2023-08-06T08:12:20;14.00;;;10.00;;
59938;SDS011;45801;51.810;19.444;2023-08-06T08:14:46;13.50;;;9.40;;
59938;SDS011;45801;51.810;19.444;2023-08-06T08:17:12;15.00;;;10.00;;
59938;SDS011;45801;51.810;19.444;2023-08-06T08:19:40;12.60;;;9.00;;
59938;SDS011;45801;51.810;19.444;2023-08-06T08:22:07;13.60;;;9.40;;
59938;SDS011;45801;51.810;19.444;2023-08-06T08:24:33;13.80;;;8.70;;
59938;SDS011;45801;51.810;19.444;2023-08-06T08:27:00;13.80;;;9.70;;
59938;SDS011;45801;51.810;19.444;2023-08-06T08:29:27;12.10;;;8.60;;
59938;SDS011;45801;51.810;19.444;2023-08-06T08:31:53;13.20;;;9.50;;
59938;SDS011;45801;51.810;19.444;2023-08-06T08:34:19;14.10;;;9.50;;
59938;SDS011;45801;51.810;19.444;2023-08-06T08:36:46;14.80;;;10.70;;
59938;SDS011;45801;51.810;19.444;2023-08-06T08:39:13;13.80;;;9.60;;
59938;SDS011;45801;51.810;19.444;2023-08-06T08:41:40;14.20;;;9.20;;
59938;SDS011;45801;51.810;19.444;2023-08-06T08:44:08;15.00;;;10.30;;
59938;SDS011;45801;51.810;19.444;2023-08-06T08:46:37;14.80;;;10.50;;
59938;SDS011;45801;51.810;19.444;2023-08-06T08:49:05;15.80;;;10.60;;
59938;SDS011;45801;51.810;19.444;2023-08-06T08:51:33;14.60;;;10.90;;
59938;SDS011;45801;51.810;19.444;2023-08-06T08:54:07;14.90;;;11.20;;
59938;SDS011;45801;51.810;19.444;2023-08-06T08:56:35;14.50;;;10.80;;
59938;SDS011;45801;51.810;19.444;2023-08-06T08:59:01;16.50;;;11.50;;
59938;SDS011;45801;51.810;19.444;2023-08-06T09:01:28;16.80;;;12.30;;
59938;SDS011;45801;51.810;19.444;2023-08-06T09:03:55;17.40;;;12.20;;
59938;SDS011;45801;51.810;19.444;2023-08-06T09:06:23;15.00;;;11.10;;
59938;SDS011;45801;51.810;19.444;2023-08-06T09:08:59;15.50;;;11.30;;
59938;SDS011;45801;51.810;19.444;2023-08-06T09:11:36;13.90;;;10.90;;
59938;SDS011;45801;51.810;19.444;2023-08-06T09:14:08;14.60;;;10.50;;
59938;SDS011;45801;51.810;19.444;2023-08-06T09:16:35;13.20;;;9.90;;
59938;SDS011;45801;51.810;19.444;2023-08-06T09:19:08;15.00;;;10.90;;
59938;SDS011;45801;51.810;19.444;2023-08-06T09:21:39;12.70;;;8.70;;
59938;SDS011;45801;51.810;19.444;2023-08-06T09:24:09;15.10;;;9.70;;
59938;SDS011;45801;51.810;19.444;2023-08-06T09:26:39;13.40;;;9.00;;
59938;SDS011;45801;51.810;19.444;2023-08-06T09:29:07;13.40;;;8.60;;
59938;SDS011;45801;51.810;19.444;2023-08-06T09:31:48;12.60;;;9.20;;
59938;SDS011;45801;51.810;19.444;2023-08-06T09:34:18;13.20;;;9.50;;
59938;SDS011;45801;51.810;19.444;2023-08-06T09:36:48;14.00;;;9.70;;
59938;SDS011;45801;51.810;19.444;2023-08-06T09:39:20;14.10;;;9.30;;
59938;SDS011;45801;51.810;19.444;2023-08-06T09:41:52;12.90;;;8.40;;
59938;SDS011;45801;51.810;19.444;2023-08-06T09:44:24;14.30;;;9.30;;
59938;SDS011;45801;51.810;19.444;2023-08-06T09:46:52;14.00;;;9.00;;
59938;SDS011;45801;51.810;19.444;2023-08-06T09:49:20;11.90;;;8.10;;
59938;SDS011;45801;51.810;19.444;2023-08-06T09:51:48;13.30;;;9.60;;
59938;SDS011;45801;51.810;19.444;2023-08-06T09:54:18;15.20;;;9.90;;
59938;SDS011;45801;51.810;19.444;2023-08-06T09:56:45;13.20;;;9.00;;
59938;SDS011;45801;51.810;19.444;2023-08-06T09:59:11;15.00;;;9.90;;
59938;SDS011;45801;51.810;19.444;2023-08-06T10:01:39;13.50;;;9.50;;
59938;SDS011;45801;51.810;19.444;2023-08-06T10:04:05;14.30;;;8.30;;
59938;SDS011;45801;51.810;19.444;2023-08-06T10:06:36;14.60;;;10.30;;
59938;SDS011;45801;51.810;19.444;2023-08-06T10:09:03;16.30;;;10.40;;
59938;SDS011;45801;51.810;19.444;2023-08-06T10:11:31;14.80;;;10.50;;
59938;SDS011;45801;51.810;19.444;2023-08-06T10:14:02;15.50;;;11.70;;
59938;SDS011;45801;51.810;19.444;2023-08-06T10:16:36;15.80;;;11.00;;
59938;SDS011;45801;51.810;19.444;2023-08-06T10:19:04;16.40;;;11.50;;
59938;SDS011;45801;51.810;19.444;2023-08-06T10:21:33;18.00;;;12.50;;
59938;SDS011;45801;51.810;19.444;2023-08-06T10:23:59;17.90;;;12.20;;
59938;SDS011;45801;51.810;19.444;2023-08-06T10:26:28;21.10;;;13.30;;
59938;SDS011;45801;51.810;19.444;2023-08-06T10:28:55;17.90;;;13.10;;
59938;SDS011;45801;51.810;19.444;2023-08-06T10:31:52;18.60;;;14.00;;
59938;SDS011;45801;51.810;19.444;2023-08-06T10:34:20;19.40;;;13.80;;
59938;SDS011;45801;51.810;19.444;2023-08-06T10:36:47;18.20;;;12.80;;
59938;SDS011;45801;51.810;19.444;2023-08-06T10:39:13;19.00;;;14.00;;
59938;SDS011;45801;51.810;19.444;2023-08-06T10:41:42;22.60;;;15.20;;
59938;SDS011;45801;51.810;19.444;2023-08-06T10:44:10;16.50;;;12.50;;
59938;SDS011;45801;51.810;19.444;2023-08-06T10:46:37;21.10;;;15.50;;
59938;SDS011;45801;51.810;19.444;2023-08-06T10:52:04;22.50;;;14.60;;
59938;SDS011;45801;51.810;19.444;2023-08-06T10:54:30;21.40;;;13.80;;
59938;SDS011;45801;51.810;19.444;2023-08-06T10:56:57;19.10;;;15.10;;
59938;SDS011;45801;51.810;19.444;2023-08-06T10:59:23;23.80;;;17.10;;
59938;SDS011;45801;51.810;19.444;2023-08-06T11:01:49;23.70;;;17.00;;
59938;SDS011;45801;51.810;19.444;2023-08-06T11:04:16;20.50;;;16.00;;
59938;SDS011;45801;51.810;19.444;2023-08-06T11:06:43;22.00;;;17.40;;
59938;SDS011;45801;51.810;19.444;2023-08-06T11:09:09;23.10;;;16.90;;
59938;SDS011;45801;51.810;19.444;2023-08-06T11:11:36;22.00;;;17.10;;
59938;SDS011;45801;51.810;19.444;2023-08-06T11:14:03;23.20;;;17.10;;
59938;SDS011;45801;51.810;19.444;2023-08-06T11:16:30;22.50;;;16.90;;
59938;SDS011;45801;51.810;19.444;2023-08-06T11:18:56;20.70;;;15.10;;
59938;SDS011;45801;51.810;19.444;2023-08-06T11:21:25;22.70;;;17.00;;
59938;SDS011;45801;51.810;19.444;2023-08-06T11:23:52;22.50;;;17.20;;
59938;SDS011;45801;51.810;19.444;2023-08-06T11:26:20;23.50;;;16.30;;
59938;SDS011;45801;51.810;19.444;2023-08-06T11:28:47;24.00;;;19.20;;
59938;SDS011;45801;51.810;19.444;2023-08-06T11:31:18;24.30;;;19.60;;
59938;SDS011;45801;51.810;19.444;2023-08-06T11:33:45;22.20;;;17.80;;
59938;SDS011;45801;51.810;19.444;2023-08-06T11:36:12;22.90;;;17.80;;
59938;SDS011;45801;51.810;19.444;2023-08-06T11:38:38;21.10;;;16.70;;
59938;SDS011;45801;51.810;19.444;2023-08-06T11:41:04;20.40;;;16.80;;
59938;SDS011;45801;51.810;19.444;2023-08-06T11:43:32;22.00;;;17.40;;
59938;SDS011;45801;51.810;19.444;2023-08-06T11:45:59;19.80;;;15.10;;
59938;SDS011;45801;51.810;19.444;2023-08-06T11:48:26;19.70;;;16.00;;
59938;SDS011;45801;51.810;19.444;2023-08-06T11:50:56;20.70;;;16.70;;
59938;SDS011;45801;51.810;19.444;2023-08-06T11:53:27;21.90;;;17.10;;
59938;SDS011;45801;51.810;19.444;2023-08-06T11:55:55;21.90;;;16.40;;
59938;SDS011;45801;51.810;19.444;2023-08-06T11:58:21;19.10;;;15.80;;
59938;SDS011;45801;51.810;19.444;2023-08-06T12:00:48;22.10;;;16.70;;
59938;SDS011;45801;51.810;19.444;2023-08-06T12:03:15;20.40;;;15.60;;
59938;SDS011;45801;51.810;19.444;2023-08-06T12:05:46;14.50;;;10.50;;
59938;SDS011;45801;51.810;19.444;2023-08-06T12:08:13;14.40;;;9.00;;
59938;SDS011;45801;51.810;19.444;2023-08-06T12:10:39;9.60;;;5.50;;
59938;SDS011;45801;51.810;19.444;2023-08-06T12:13:06;9.10;;;4.40;;
59938;SDS011;45801;51.810;19.444;2023-08-06T12:15:32;9.60;;;6.50;;
59938;SDS011;45801;51.810;19.444;2023-08-06T12:17:59;9.60;;;3.40;;
59938;SDS011;45801;51.810;19.444;2023-08-06T12:20:25;7.70;;;3.40;;
59938;SDS011;45801;51.810;19.444;2023-08-06T12:22:53;5.60;;;2.40;;
59938;SDS011;45801;51.810;19.444;2023-08-06T12:25:19;5.10;;;1.70;;
59938;SDS011;45801;51.810;19.444;2023-08-06T12:27:48;6.00;;;2.40;;
59938;SDS011;45801;51.810;19.444;2023-08-06T12:30:14;3.60;;;1.30;;
59938;SDS011;45801;51.810;19.444;2023-08-06T12:32:41;4.10;;;1.30;;
59938;SDS011;45801;51.810;19.444;2023-08-06T12:35:07;5.00;;;2.60;;
59938;SDS011;45801;51.810;19.444;2023-08-06T12:37:35;3.30;;;1.30;;
59938;SDS011;45801;51.810;19.444;2023-08-06T12:40:02;4.00;;;1.40;;
59938;SDS011;45801;51.810;19.444;2023-08-06T12:42:29;4.80;;;1.90;;
59938;SDS011;45801;51.810;19.444;2023-08-06T12:44:56;4.00;;;1.80;;
59938;SDS011;45801;51.810;19.444;2023-08-06T12:47:22;3.50;;;1.70;;
59938;SDS011;45801;51.810;19.444;2023-08-06T12:49:49;4.90;;;1.70;;
59938;SDS011;45801;51.810;19.444;2023-08-06T12:52:15;3.40;;;1.50;;
59938;SDS011;45801;51.810;19.444;2023-08-06T12:54:42;3.10;;;1.40;;
59938;SDS011;45801;51.810;19.444;2023-08-06T12:57:08;3.50;;;1.60;;
59938;SDS011;45801;51.810;19.444;2023-08-06T12:59:35;3.10;;;1.50;;
59938;SDS011;45801;51.810;19.444;2023-08-06T13:02:04;4.20;;;1.70;;
59938;SDS011;45801;51.810;19.444;2023-08-06T13:04:32;3.40;;;1.60;;
59938;SDS011;45801;51.810;19.444;2023-08-06T13:07:00;4.90;;;2.30;;
59938;SDS011;45801;51.810;19.444;2023-08-06T13:09:26;4.70;;;2.00;;
59938;SDS011;45801;51.810;19.444;2023-08-06T13:11:54;4.60;;;2.00;;
59938;SDS011;45801;51.810;19.444;2023-08-06T13:14:20;4.00;;;1.90;;
59938;SDS011;45801;51.810;19.444;2023-08-06T13:16:46;4.30;;;1.80;;
59938;SDS011;45801;51.810;19.444;2023-08-06T13:19:13;2.90;;;1.40;;
59938;SDS011;45801;51.810;19.444;2023-08-06T13:24:11;2.90;;;1.50;;
59938;SDS011;45801;51.810;19.444;2023-08-06T13:26:38;3.50;;;1.40;;
59938;SDS011;45801;51.810;19.444;2023-08-06T13:29:05;3.50;;;1.60;;
59938;SDS011;45801;51.810;19.444;2023-08-06T13:31:33;2.90;;;1.40;;
59938;SDS011;45801;51.810;19.444;2023-08-06T13:33:59;3.30;;;1.60;;
59938;SDS011;45801;51.810;19.444;2023-08-06T13:36:26;2.40;;;1.60;;
59938;SDS011;45801;51.810;19.444;2023-08-06T13:38:53;2.10;;;1.50;;
59938;SDS011;45801;51.810;19.444;2023-08-06T13:41:20;3.10;;;1.60;;
59938;SDS011;45801;51.810;19.444;2023-08-06T13:43:47;4.10;;;1.80;;
59938;SDS011;45801;51.810;19.444;2023-08-06T13:46:13;3.10;;;1.60;;
59938;SDS011;45801;51.810;19.444;2023-08-06T13:48:44;3.20;;;1.60;;
59938;SDS011;45801;51.810;19.444;2023-08-06T13:51:12;3.40;;;1.70;;
59938;SDS011;45801;51.810;19.444;2023-08-06T13:53:39;3.40;;;1.60;;
59938;SDS011;45801;51.810;19.444;2023-08-06T13:56:06;4.70;;;1.80;;
59938;SDS011;45801;51.810;19.444;2023-08-06T13:58:36;3.80;;;1.80;;
59938;SDS011;45801;51.810;19.444;2023-08-06T14:01:04;3.40;;;1.80;;
59938;SDS011;45801;51.810;19.444;2023-08-06T14:03:30;4.20;;;1.50;;
59938;SDS011;45801;51.810;19.444;2023-08-06T14:05:58;2.50;;;1.20;;
59938;SDS011;45801;51.810;19.444;2023-08-06T14:08:25;2.60;;;1.40;;
59938;SDS011;45801;51.810;19.444;2023-08-06T14:10:54;2.40;;;1.10;;
59938;SDS011;45801;51.810;19.444;2023-08-06T14:13:21;2.20;;;0.80;;
59938;SDS011;45801;51.810;19.444;2023-08-06T14:15:48;2.20;;;0.90;;
59938;SDS011;45801;51.810;19.444;2023-08-06T14:18:15;2.80;;;1.10;;
59938;SDS011;45801;51.810;19.444;2023-08-06T14:20:42;1.70;;;0.90;;
59938;SDS011;45801;51.810;19.444;2023-08-06T14:23:10;1.30;;;0.80;;
59938;SDS011;45801;51.810;19.444;2023-08-06T14:25:37;1.20;;;0.80;;
59938;SDS011;45801;51.810;19.444;2023-08-06T14:28:04;0.80;;;0.70;;
59938;SDS011;45801;51.810;19.444;2023-08-06T14:30:32;1.30;;;0.70;;
59938;SDS011;45801;51.810;19.444;2023-08-06T14:32:59;2.10;;;0.70;;
59938;SDS011;45801;51.810;19.444;2023-08-06T14:35:27;1.50;;;0.80;;
59938;SDS011;45801;51.810;19.444;2023-08-06T14:37:53;1.40;;;0.90;;